Hauptseite
METAR-TAF:

METAR-TAF

Flughäfen :

Rarotonga, Cookinseln

Flughafen Rarotonga

Breite: 21-12S, Länge: 159-49W, Höhe: 7 m

Beobachtung

Neuester Wetterbericht von vor 25 Minuten, um 02:00 UTC
Wind 9 kt aus Süd/Südost
Temperatur 26°C
Luftfeuchtigkeit 65%
Luftdruck 1017 hPa
Sichtweite 10 km oder mehr
Aufgelockert bewölkt in der Höhe von 2500 ft

METAR: NCRG 230200Z 15009KT 9999 SCT025 26/19 Q1017

Zeit: 16:25 (02:25 UTC)

Prognose

Neuester Wetterbericht von vor 3 Stunden und 15 Minuten, um 23:10 UTC
Gültige Prognose vom 23 um 00 UTC bis 23 um 24 UTC
Wind 10 kt aus Südost
Sichtweite 10 km oder mehr
Aufgelockert bewölkt in der Höhe von 2300 ft
Durchbrochene Bewölkung in der Höhe von 4500 ft

TAF: NCRG 222310Z 2300/2324 14010KT 9999 SCT023 BKN045

Wetterbeobachtungen und Prognosen von mehr als 4000 Flughäfen (METAR und TAF Bericht).

Die verfügbaren Stationen werden durch gelbe und rote Markierungen auf der Karte dargestellt.

Führen Sie die Maus auf sie, um den Namen der Station zu sehen.

Darauf klicken, um die Beobachtung von Wetterbeobachtungen und Prognosen zu sehen.

Um die Karte zu ändern : klicken Sie auf den grünen Tasten mit einem schwarzen Kreuz Zum Vergrößern, auf den grünen Button mit einem Gedankenstrich zu verkleinern, oder auf die grünen Pfeile für benachbarte Karten.


METAR-TAF: